createdAt,value
2023-10-14T00:03:43.087Z,17.47
2023-10-14T00:08:55.742Z,16.55
2023-10-14T00:13:59.167Z,16.86
2023-10-14T00:19:05.491Z,17.09
2023-10-14T00:24:10.664Z,17.70
2023-10-14T00:29:21.275Z,18.03
2023-10-14T00:34:26.987Z,17.91
2023-10-14T00:39:33.203Z,16.57
2023-10-14T00:44:38.730Z,18.65
2023-10-14T00:49:44.100Z,16.53
2023-10-14T00:55:01.541Z,16.76
2023-10-14T01:00:11.005Z,21.53
2023-10-14T01:05:19.443Z,16.91
2023-10-14T01:10:26.789Z,17.25
2023-10-14T01:15:33.077Z,16.50
2023-10-14T01:20:39.155Z,16.13
2023-10-14T01:25:49.610Z,16.07
2023-10-14T01:31:31.811Z,16.20
2023-10-14T01:36:42.194Z,16.34
2023-10-14T01:41:47.253Z,16.74
2023-10-14T01:46:56.716Z,16.70
2023-10-14T01:52:01.285Z,17.61
2023-10-14T01:57:13.247Z,16.42
2023-10-14T02:02:22.523Z,15.06
2023-10-14T02:07:28.468Z,16.34
2023-10-14T02:12:36.267Z,15.89
2023-10-14T02:17:42.284Z,15.20
2023-10-14T02:22:50.654Z,15.53
2023-10-14T02:27:55.421Z,16.97
2023-10-14T02:32:59.096Z,29.17
2023-10-14T02:38:07.486Z,16.95
2023-10-14T02:43:18.311Z,17.22
2023-10-14T02:48:25.150Z,16.53
2023-10-14T02:53:30.225Z,16.52
2023-10-14T02:58:39.698Z,16.51
2023-10-14T03:03:44.211Z,17.85
2023-10-14T03:08:58.843Z,16.63
2023-10-14T03:14:04.066Z,16.94
2023-10-14T03:19:11.253Z,16.10
2023-10-14T03:24:18.625Z,16.93
2023-10-14T03:29:24.436Z,17.20
2023-10-14T03:34:31.956Z,20.01
2023-10-14T03:39:46.836Z,17.48
2023-10-14T03:44:53.086Z,15.69
2023-10-14T03:49:57.702Z,16.67
2023-10-14T03:55:09.901Z,19.27
2023-10-14T04:00:31.841Z,19.44
2023-10-14T04:05:38.697Z,19.17
2023-10-14T04:10:47.729Z,16.11
2023-10-14T04:15:54.934Z,20.29
2023-10-14T04:21:14.796Z,18.98
2023-10-14T04:26:22.925Z,17.13
2023-10-14T04:31:40.413Z,12.41
2023-10-14T04:36:55.753Z,13.33
2023-10-14T04:42:21.109Z,22.22
2023-10-14T04:47:38.225Z,14.43
2023-10-14T04:52:50.149Z,13.56
2023-10-14T04:58:13.445Z,21.74
2023-10-14T05:03:22.333Z,15.19
2023-10-14T05:08:28.777Z,15.84
2023-10-14T05:13:33.821Z,16.89
2023-10-14T05:18:40.054Z,15.91
2023-10-14T05:23:44.797Z,15.96
2023-10-14T05:28:48.271Z,26.78
2023-10-14T05:33:53.058Z,20.39
2023-10-14T05:38:58.656Z,16.45
2023-10-14T05:44:05.319Z,16.85
2023-10-14T05:49:11.412Z,15.67
2023-10-14T05:54:17.223Z,15.96
2023-10-14T05:59:20.799Z,16.67
2023-10-14T06:04:25.788Z,16.83
2023-10-14T06:09:32.757Z,16.30
2023-10-14T06:14:38.434Z,14.70
2023-10-14T06:19:44.412Z,15.59
2023-10-14T06:24:48.977Z,15.75
2023-10-14T06:29:56.581Z,13.66
2023-10-14T06:35:03.804Z,11.84
2023-10-14T06:40:13.158Z,11.13
2023-10-14T06:45:23.368Z,10.76
2023-10-14T06:50:28.176Z,11.12
2023-10-14T06:55:38.709Z,11.24
2023-10-14T07:00:42.755Z,10.40
2023-10-14T07:05:58.300Z,11.14
2023-10-14T07:11:07.429Z,13.69
2023-10-14T07:16:12.900Z,13.85
2023-10-14T07:21:17.845Z,14.87
2023-10-14T07:26:21.655Z,14.45
2023-10-14T07:31:25.729Z,13.67
2023-10-14T07:36:30.992Z,12.95
2023-10-14T07:41:39.198Z,14.00
2023-10-14T07:46:42.776Z,14.61
2023-10-14T07:51:54.197Z,14.39
2023-10-14T07:56:57.702Z,15.29
2023-10-14T08:02:01.454Z,14.89
2023-10-14T08:07:07.047Z,14.16
2023-10-14T08:12:15.724Z,13.95
2023-10-14T08:17:23.837Z,15.64
2023-10-14T08:22:29.385Z,12.94
2023-10-14T08:27:34.414Z,12.28
2023-10-14T08:32:38.928Z,11.00
2023-10-14T08:37:45.234Z,11.43
2023-10-14T08:42:52.947Z,11.18
2023-10-14T08:48:00.265Z,11.34
2023-10-14T08:53:06.190Z,10.30
2023-10-14T08:58:15.078Z,11.70
2023-10-14T09:03:18.989Z,13.43
2023-10-14T09:08:25.046Z,11.99
2023-10-14T09:13:34.987Z,10.96
2023-10-14T09:18:41.065Z,10.63
2023-10-14T09:23:46.022Z,10.84
2023-10-14T09:28:49.649Z,11.88
2023-10-14T09:33:54.179Z,13.66
2023-10-14T09:39:08.037Z,11.95
2023-10-14T09:44:11.731Z,11.04
2023-10-14T09:49:18.010Z,12.37
2023-10-14T09:54:26.251Z,12.17
2023-10-14T09:59:30.359Z,12.75
2023-10-14T10:04:37.156Z,12.42
2023-10-14T10:09:59.262Z,13.00
2023-10-14T10:15:04.082Z,11.81
2023-10-14T10:20:13.487Z,11.93
2023-10-14T10:25:19.413Z,12.88
2023-10-14T10:30:24.211Z,12.02
2023-10-14T10:35:27.623Z,12.49
2023-10-14T10:40:32.528Z,11.89
2023-10-14T10:45:41.562Z,12.44
2023-10-14T10:50:52.410Z,11.97
2023-10-14T10:55:57.537Z,12.41
2023-10-14T11:01:02.583Z,12.45
2023-10-14T11:06:06.407Z,11.34
2023-10-14T11:11:16.234Z,11.57
2023-10-14T11:16:22.053Z,11.80
2023-10-14T11:21:30.194Z,10.14
2023-10-14T11:26:39.130Z,10.35
2023-10-14T11:31:45.489Z,13.02
2023-10-14T11:36:50.628Z,12.09
2023-10-14T11:42:02.877Z,10.51
2023-10-14T11:47:09.233Z,9.91
2023-10-14T11:52:12.918Z,12.29
2023-10-14T11:57:20.211Z,10.87
2023-10-14T12:02:25.954Z,10.69
2023-10-14T12:07:29.508Z,9.90
2023-10-14T12:12:34.983Z,10.61
2023-10-14T12:17:38.513Z,10.29
2023-10-14T12:22:43.203Z,12.16
2023-10-14T12:27:49.696Z,10.98
2023-10-14T12:32:53.198Z,11.00
2023-10-14T12:37:57.225Z,9.96
2023-10-14T12:43:04.608Z,10.86
2023-10-14T12:48:11.751Z,10.74
2023-10-14T12:53:15.710Z,10.56
2023-10-14T12:58:20.573Z,11.01
2023-10-14T13:03:26.474Z,11.54
2023-10-14T13:08:31.909Z,11.76
2023-10-14T13:13:41.466Z,10.45
2023-10-14T13:18:46.342Z,11.91
2023-10-14T13:23:50.563Z,10.33
2023-10-14T13:28:57.898Z,9.56
2023-10-14T13:34:06.757Z,10.61
2023-10-14T13:39:17.037Z,10.32
2023-10-14T13:44:21.770Z,9.94
2023-10-14T13:49:26.741Z,8.26
2023-10-14T13:54:30.457Z,5.47
2023-10-14T13:59:35.504Z,5.96
2023-10-14T14:04:41.207Z,5.33
2023-10-14T14:09:50.686Z,5.03
2023-10-14T14:14:55.872Z,4.48
2023-10-14T14:19:59.459Z,7.62
2023-10-14T14:25:02.935Z,7.34
2023-10-14T14:30:09.414Z,5.66
2023-10-14T14:35:12.832Z,7.95
2023-10-14T14:40:24.619Z,6.62
2023-10-14T14:45:30.743Z,6.96
2023-10-14T14:50:35.731Z,7.25
2023-10-14T14:55:44.259Z,8.61
2023-10-14T15:00:52.527Z,12.09
2023-10-14T15:05:59.331Z,8.32
2023-10-14T15:11:05.202Z,10.99
2023-10-14T15:16:12.711Z,10.80
2023-10-14T15:21:20.620Z,7.64
2023-10-14T15:26:27.140Z,7.66
2023-10-14T15:31:32.298Z,13.80
2023-10-14T15:36:35.816Z,12.80
2023-10-14T15:41:39.659Z,9.82
2023-10-14T15:46:44.575Z,14.62
2023-10-14T15:51:52.946Z,14.40
2023-10-14T15:56:56.434Z,11.28
2023-10-14T16:02:03.668Z,7.61
2023-10-14T16:07:10.686Z,7.13
2023-10-14T16:12:17.340Z,6.79
2023-10-14T16:17:24.693Z,5.15
2023-10-14T16:22:30.236Z,5.96
2023-10-14T16:27:38.030Z,6.00
2023-10-14T16:32:43.003Z,6.15
2023-10-14T16:37:50.138Z,14.51
2023-10-14T16:42:54.598Z,6.52
2023-10-14T16:48:02.672Z,7.25
2023-10-14T16:53:09.146Z,5.69
2023-10-14T16:58:15.294Z,5.66
2023-10-14T17:03:23.861Z,5.94
2023-10-14T17:08:32.461Z,8.07
2023-10-14T17:13:41.411Z,12.71
2023-10-14T17:18:48.535Z,7.31
2023-10-14T17:23:52.849Z,7.25
2023-10-14T17:28:58.264Z,7.31
2023-10-14T17:34:05.032Z,6.73
2023-10-14T17:39:11.275Z,6.87
2023-10-14T17:44:17.148Z,9.04
2023-10-14T17:49:29.000Z,13.71
2023-10-14T17:54:34.990Z,9.34
2023-10-14T17:59:40.668Z,7.70
2023-10-14T18:04:45.511Z,8.63
2023-10-14T18:09:49.035Z,13.30
2023-10-14T18:14:55.757Z,8.72
2023-10-14T18:20:01.081Z,8.79
2023-10-14T18:25:06.063Z,8.94
2023-10-14T18:30:14.670Z,9.94
2023-10-14T18:35:20.398Z,12.76
2023-10-14T18:40:27.120Z,9.52
2023-10-14T18:45:30.898Z,9.87
2023-10-14T18:50:38.500Z,9.91
2023-10-14T18:55:50.812Z,10.24
2023-10-14T19:00:58.116Z,9.53
2023-10-14T19:06:07.468Z,9.50
2023-10-14T19:11:15.147Z,10.19
2023-10-14T19:16:18.763Z,10.07
2023-10-14T19:21:26.122Z,8.86
2023-10-14T19:26:32.158Z,9.25
2023-10-14T19:31:38.204Z,9.49
2023-10-14T19:36:43.058Z,11.43
2023-10-14T19:41:49.164Z,9.09
2023-10-14T19:46:52.660Z,10.06
2023-10-14T19:51:57.585Z,9.31
2023-10-14T19:57:04.393Z,8.84
2023-10-14T20:02:10.664Z,8.67
2023-10-14T20:07:15.505Z,9.43
2023-10-14T20:12:18.915Z,11.50
2023-10-14T20:17:25.694Z,8.79
2023-10-14T20:22:32.764Z,7.38
2023-10-14T20:27:37.065Z,11.40
2023-10-14T20:32:40.661Z,12.14
2023-10-14T20:37:46.627Z,12.21
2023-10-14T20:42:51.630Z,12.77
2023-10-14T20:47:59.009Z,10.96
2023-10-14T20:53:06.876Z,13.95
2023-10-14T20:58:10.582Z,18.10
2023-10-14T21:03:21.736Z,13.30
2023-10-14T21:08:30.859Z,15.92
2023-10-14T21:13:34.393Z,11.34
2023-10-14T21:18:38.344Z,12.02
2023-10-14T21:23:46.008Z,11.47
2023-10-14T21:28:49.717Z,12.68
2023-10-14T21:33:53.807Z,16.13
2023-10-14T21:39:01.241Z,12.32
2023-10-14T21:44:07.338Z,11.59
2023-10-14T21:49:12.837Z,12.48
2023-10-14T21:54:18.870Z,13.22
2023-10-14T21:59:30.313Z,11.77
2023-10-14T22:04:36.831Z,11.61
2023-10-14T22:09:41.768Z,11.84
2023-10-14T22:14:47.759Z,28.62
2023-10-14T22:19:51.286Z,21.28
2023-10-14T22:24:58.762Z,11.34
2023-10-14T22:30:06.292Z,10.82
2023-10-14T22:35:15.888Z,10.44
2023-10-14T22:40:25.736Z,10.26
2023-10-14T22:45:29.657Z,10.53
2023-10-14T22:50:33.133Z,10.08
2023-10-14T22:55:40.978Z,12.07
2023-10-14T23:00:44.574Z,10.45
2023-10-14T23:05:52.396Z,9.01
2023-10-14T23:11:00.001Z,12.02
2023-10-14T23:16:05.704Z,9.29
2023-10-14T23:21:10.468Z,10.57
2023-10-14T23:26:15.479Z,10.95
2023-10-14T23:31:21.535Z,9.00
2023-10-14T23:36:27.887Z,9.87
2023-10-14T23:41:32.652Z,9.66
2023-10-14T23:46:36.087Z,10.11
2023-10-14T23:51:44.036Z,9.21
2023-10-14T23:56:50.130Z,9.79
